In Amenas, Algeria
Current Conditions -  °F | °C
As of 1:00 PM on Tuesday 21 Oct 2014 (Local Time) from DAUZ Reporting Station
Clear Clear  
Wind Chill: 84°   Ceiling: Unl
Heat Index: 84°   Visibility: 6mi
Dew Point: 39°   Wind: 8mph
Humidity: 20%   Direction: 340°NNW
Pressure: 30.06"   Gusts: NA
Location:  28.05°N, 9.56°E
Report Text: DAUZ 211200Z 34007KT 290V040 CAVOK 29/04 Q1018
Loading
Personal Weather Stations






























Interactive Weather Map New forecast layout! Learn more

10-Day Weather Forecast

Advertisements
Track Severe Weather on mobile